Time;durP1;ratioP1;P1;durP2;ratioP2;P2;SDS_P1;SDS_P2;PMS_P1;PMS_P2;Temp;Humidity;BMP_temperature;BMP_pressure;BME280_temperature;BME280_humidity;BME280_pressure;Samples;Min_cycle;Max_cycle;Signal;HPM_P1;HPM_P2
2022/11/15 00:02:05;;;;;;;25.70;15.75;;;7.60;99.90;;;;;;6230427;22;20042;-96
2022/11/15 00:05:08;;;;;;;;;;;;;;;;;;;;;
2022/11/15 00:07:40;;;;;;;23.20;14.52;;;7.60;99.90;;;;;;6286171;22;20023;-96
2022/11/15 00:10:20;;;;;;;23.23;14.65;;;7.60;99.90;;;;;;6268543;22;20015;-96
2022/11/15 00:20:37;;;;;;;;;;;;;;;;;;;;;
2022/11/15 00:24:14;;;;;;;;;;;;;;;;;;;;;
2022/11/15 00:27:56;;;;;;;21.25;14.73;;;7.30;99.90;;;;;;6276659;22;20030;-96
2022/11/15 00:45:23;;;;;;;25.50;15.48;;;6.70;99.90;;;;;;6170889;23;20029;-96
2022/11/15 00:48:32;;;;;;;23.50;14.38;;;6.80;99.90;;;;;;6210418;23;20050;-96
2022/11/15 00:51:23;;;;;;;25.02;14.70;;;6.70;99.90;;;;;;6219011;23;20020;-96
2022/11/15 00:53:55;;;;;;;24.52;15.20;;;6.80;99.90;;;;;;6207206;23;20032;-96
2022/11/15 00:57:05;;;;;;;24.98;14.77;;;6.80;99.90;;;;;;6207753;23;20114;-95
2022/11/15 00:59:58;;;;;;;26.10;15.60;;;6.90;99.90;;;;;;6164898;23;20424;-96
2022/11/15 01:02:35;;;;;;;;;;;;;;;;;;;;;
2022/11/15 01:08:54;;;;;;;24.00;14.60;;;6.80;99.90;;;;;;6259097;23;20038;-96
2022/11/15 01:15:01;;;;;;;22.42;14.27;;;6.70;99.90;;;;;;6230405;23;20050;-96
2022/11/15 01:17:34;;;;;;;23.83;14.90;;;6.70;99.90;;;;;;6201482;23;20023;-96
2022/11/15 01:20:05;;;;;;;23.25;14.82;;;6.70;99.90;;;;;;6200819;23;20024;-96
2022/11/15 01:22:52;;;;;;;24.42;15.10;;;6.80;99.90;;;;;;6200131;23;20169;-96
2022/11/15 01:25:20;;;;;;;23.45;14.73;;;7.00;99.90;;;;;;6193292;23;20024;-96
2022/11/15 01:27:56;;;;;;;;;;;;;;;;;;;;;
2022/11/15 01:30:22;;;;;;;21.92;14.25;;;6.70;99.90;;;;;;6202229;23;20054;-96
2022/11/15 01:32:52;;;;;;;21.15;13.55;;;6.60;99.90;;;;;;6197189;23;20044;-96
2022/11/15 01:35:40;;;;;;;24.63;15.35;;;6.60;99.90;;;;;;6197780;23;20477;-96
2022/11/15 01:38:16;;;;;;;22.88;13.95;;;6.60;99.90;;;;;;6212255;23;20031;-95
2022/11/15 01:41:01;;;;;;;22.52;14.50;;;6.60;99.90;;;;;;6209393;23;20027;-96
2022/11/15 01:43:41;;;;;;;23.25;14.50;;;6.70;99.90;;;;;;6216075;22;20059;-96
2022/11/15 01:46:39;;;;;;;22.42;14.63;;;6.10;99.90;;;;;;6228420;22;20081;-96
2022/11/15 01:56:32;;;;;;;23.53;14.17;;;6.80;99.90;;;;;;6279793;22;20014;-96
2022/11/15 01:59:48;;;;;;;;;;;;;;;;;;;;;
2022/11/15 02:02:45;;;;;;;22.50;14.98;;;6.80;99.90;;;;;;6254551;22;20369;-96
2022/11/15 02:05:12;;;;;;;23.60;15.02;;;6.90;99.90;;;;;;6217569;22;20496;-96
2022/11/15 02:08:19;;;;;;;24.98;15.45;;;6.90;99.90;;;;;;6227375;22;20330;-96
2022/11/15 02:11:23;;;;;;;24.60;15.00;;;7.00;99.90;;;;;;6224788;22;20030;-95
2022/11/15 02:14:00;;;;;;;24.90;14.45;;;7.00;99.90;;;;;;6225582;22;20065;-95
2022/11/15 02:30:45;;;;;;;20.92;12.82;;;7.10;99.90;;;;;;6248893;22;20418;-96
2022/11/15 02:33:36;;;;;;;23.15;13.68;;;6.80;99.90;;;;;;6224937;22;20015;-96
2022/11/15 02:36:21;;;;;;;20.67;12.40;;;6.80;99.90;;;;;;6226543;22;20392;-96
2022/11/15 02:39:23;;;;;;;23.70;13.73;;;7.20;99.90;;;;;;6224448;22;20107;-96
2022/11/15 02:42:00;;;;;;;23.50;14.13;;;6.80;99.90;;;;;;6223978;22;20031;-96
2022/11/15 02:44:33;;;;;;;25.13;13.63;;;7.10;99.90;;;;;;6242539;22;20015;-95
2022/11/15 02:47:36;;;;;;;22.75;13.07;;;7.10;99.90;;;;;;6254439;22;20019;-96
2022/11/15 02:50:11;;;;;;;26.77;15.32;;;7.10;99.90;;;;;;6255216;22;20025;-96
2022/11/15 02:52:57;;;;;;;23.63;13.50;;;7.10;99.90;;;;;;6256112;22;20046;-96
2022/11/15 02:55:51;;;;;;;25.48;14.55;;;7.20;99.90;;;;;;6257078;22;20079;-96
2022/11/15 02:58:43;;;;;;;25.85;13.57;;;7.20;99.90;;;;;;6258811;22;20091;-96
2022/11/15 03:01:48;;;;;;;26.70;13.70;;;7.10;99.90;;;;;;6255446;22;20022;-96
2022/11/15 03:04:47;;;;;;;26.58;14.43;;;7.20;99.90;;;;;;6255337;22;20019;-96
2022/11/15 03:07:24;;;;;;;27.35;14.10;;;7.20;99.90;;;;;;6254434;22;20011;-96
2022/11/15 03:10:28;;;;;;;28.98;14.10;;;7.20;99.90;;;;;;6258895;22;20023;-96
2022/11/15 03:13:32;;;;;;;30.40;15.93;;;7.20;99.90;;;;;;6254777;22;20068;-96
2022/11/15 03:16:05;;;;;;;28.58;14.68;;;7.20;99.90;;;;;;6257005;22;20026;-96
2022/11/15 03:18:40;;;;;;;30.08;15.50;;;7.20;99.90;;;;;;6256213;22;20015;-94
2022/11/15 03:21:44;;;;;;;24.15;14.50;;;7.20;99.90;;;;;;6254240;22;20382;-96
2022/11/15 03:24:33;;;;;;;29.48;14.48;;;7.30;99.90;;;;;;6254062;22;20019;-95
2022/11/15 03:27:39;;;;;;;29.27;15.15;;;7.30;99.90;;;;;;6255679;22;20026;-96
2022/11/15 03:30:11;;;;;;;27.63;14.38;;;7.30;99.90;;;;;;6255260;22;20102;-96
2022/11/15 03:32:52;;;;;;;30.60;15.27;;;7.30;99.90;;;;;;6255155;22;20074;-96
2022/11/15 03:35:35;;;;;;;31.83;14.93;;;7.30;99.90;;;;;;6255146;22;20015;-96
2022/11/15 03:38:26;;;;;;;26.85;14.85;;;6.80;99.90;;;;;;6256202;22;20055;-96
2022/11/15 03:41:31;;;;;;;32.20;15.50;;;7.30;99.90;;;;;;6256351;22;20337;-96
2022/11/15 03:44:27;;;;;;;26.58;15.07;;;7.30;99.90;;;;;;6235436;22;20026;-96
2022/11/15 03:47:24;;;;;;;28.27;15.52;;;7.60;99.90;;;;;;6254515;22;20034;-96
2022/11/15 03:50:10;;;;;;;27.45;14.80;;;7.30;99.90;;;;;;6255850;22;20015;-96
2022/11/15 03:52:37;;;;;;;27.08;14.25;;;7.10;99.90;;;;;;6255972;22;20015;-96
2022/11/15 03:55:06;;;;;;;26.77;14.43;;;7.20;99.90;;;;;;6255041;22;20046;-95
2022/11/15 03:58:15;;;;;;;26.98;15.75;;;7.30;99.90;;;;;;6255463;22;20046;-96
2022/11/15 04:01:02;;;;;;;29.60;14.35;;;7.40;99.90;;;;;;6259058;22;20015;-96
2022/11/15 04:07:04;;;;;;;25.92;14.50;;;7.40;99.90;;;;;;6281693;22;20102;-96
2022/11/15 04:12:55;;;;;;;29.15;15.65;;;7.50;99.90;;;;;;6170214;23;20025;-96
2022/11/15 04:15:26;;;;;;;30.00;15.27;;;8.30;99.90;;;;;;6211364;22;20034;-96
2022/11/15 04:17:57;;;;;;;30.00;15.80;;;8.20;99.90;;;;;;6252681;22;20015;-96
2022/11/15 04:24:41;;;;;;;32.40;15.98;;;7.50;99.90;;;;;;6283541;22;20326;-96
2022/11/15 04:27:27;;;;;;;34.72;16.85;;;7.60;99.90;;;;;;6259275;22;20022;-96
2022/11/15 04:33:41;;;;;;;33.85;16.00;;;7.60;99.90;;;;;;6287894;22;20484;-96
2022/11/15 04:39:29;;;;;;;35.05;16.58;;;8.40;99.90;;;;;;6283707;22;20019;-96
2022/11/15 04:41:55;;;;;;;34.92;17.25;;;7.70;99.90;;;;;;6256109;22;20049;-96
2022/11/15 04:44:21;;;;;;;39.75;18.17;;;7.70;99.90;;;;;;6207042;22;20019;-96
2022/11/15 04:46:47;;;;;;;35.50;17.95;;;7.80;99.90;;;;;;6232108;22;20011;-96
2022/11/15 04:49:39;;;;;;;42.78;18.33;;;7.70;99.90;;;;;;6255184;22;20023;-96
2022/11/15 04:52:09;;;;;;;40.40;18.55;;;7.10;99.90;;;;;;6233759;22;20021;-96
2022/11/15 04:55:25;;;;;;;44.55;19.10;;;7.70;99.90;;;;;;6234047;22;20015;-96
2022/11/15 04:58:10;;;;;;;44.42;18.88;;;7.80;99.90;;;;;;6293477;22;20019;-96
2022/11/15 05:01:16;;;;;;;42.17;18.58;;;7.80;99.90;;;;;;6271071;22;20019;-96
2022/11/15 05:04:30;;;;;;;;;;;;;;;;;;;;;
2022/11/15 05:07:28;;;;;;;39.65;18.17;;;7.80;99.90;;;;;;6295657;22;20019;-96
2022/11/15 05:14:06;;;;;;;41.70;19.02;;;7.80;99.90;;;;;;6292406;22;20023;-96
2022/11/15 05:16:47;;;;;;;44.45;19.80;;;7.90;99.90;;;;;;6265244;22;20019;-96
2022/11/15 05:19:16;;;;;;;51.20;22.08;;;7.80;99.90;;;;;;6240176;22;20026;-96
2022/11/15 05:21:42;;;;;;;38.97;19.73;;;7.90;99.90;;;;;;6240875;22;20023;-96
2022/11/15 05:24:34;;;;;;;47.78;21.65;;;7.80;99.90;;;;;;6240153;22;20041;-96
2022/11/15 05:30:52;;;;;;;49.58;20.40;;;7.80;99.90;;;;;;6294114;22;20019;-96
2022/11/15 05:33:21;;;;;;;54.60;22.08;;;8.00;99.90;;;;;;6239400;22;20018;-96
2022/11/15 06:22:11;;;;;;;;;;;;;;;;;;;;;
2022/11/15 06:25:09;;;;;;;79.30;27.30;;;8.20;99.90;;;;;;6230266;22;20022;-96
2022/11/15 07:35:42;;;;;;;69.20;28.10;;;9.10;99.90;;;;;;6246928;22;20028;-96
2022/11/15 08:43:40;;;;;;;40.58;20.65;;;10.30;99.90;;;;;;6311713;22;20079;-96
2022/11/15 08:50:28;;;;;;;33.20;18.25;;;10.30;99.90;;;;;;6297536;22;20015;-96
2022/11/15 09:06:57;;;;;;;28.23;17.27;;;10.60;99.90;;;;;;6292603;22;19922;-96
2022/11/15 09:09:51;;;;;;;28.95;17.25;;;10.70;99.90;;;;;;6283524;22;20031;-96
2022/11/15 09:24:51;;;;;;;23.15;13.75;;;11.10;99.90;;;;;;6325292;22;20019;-96
2022/11/15 11:18:11;;;;;;;;;;;;;;;;;;;;;
2022/11/15 11:21:51;;;;;;;;;;;;;;;;;;;;;
2022/11/15 11:25:15;;;;;;;;;;;;;;;;;;;;;
2022/11/15 12:24:07;;;;;;;15.38;10.40;;;12.30;99.90;;;;;;6333555;22;20026;-96
2022/11/15 12:31:40;;;;;;;8.70;6.05;;;11.70;99.90;;;;;;6360076;22;20083;-96
2022/11/15 12:35:14;;;;;;;11.60;6.88;;;13.70;99.90;;;;;;6332035;22;20048;-96
2022/11/15 12:39:13;;;;;;;;;;;;;;;;;;;;;
2022/11/15 12:46:04;;;;;;;7.32;4.95;;;11.20;99.90;;;;;;6383493;22;20017;-96
2022/11/15 12:49:12;;;;;;;;;;;;;;;;;;;;;
2022/11/15 12:59:28;;;;;;;9.30;4.45;;;12.40;99.90;;;;;;6266126;22;20023;-96
2022/11/15 13:06:00;;;;;;;11.27;4.50;;;11.50;99.90;;;;;;6261904;22;20109;-96
2022/11/15 13:09:11;;;;;;;7.32;3.85;;;11.90;99.90;;;;;;6171930;23;20020;-96
2022/11/15 13:12:07;;;;;;;;;;;;;;;;;;;;;
2022/11/15 13:15:35;;;;;;;;;;;;;;;;;;;;;
2022/11/15 13:27:32;;;;;;;9.00;4.10;;;11.70;99.90;;;;;;6332199;22;20022;-96
2022/11/15 13:30:24;;;;;;;6.10;3.53;;;12.30;99.90;;;;;;6294208;22;20019;-96
2022/11/15 13:33:32;;;;;;;7.32;3.40;;;12.20;99.90;;;;;;6316534;22;20018;-96
2022/11/15 13:36:27;;;;;;;6.00;3.05;;;12.30;99.90;;;;;;6290125;22;20092;-96
2022/11/15 13:39:42;;;;;;;7.45;3.08;;;12.20;99.90;;;;;;6290429;22;20076;-96
2022/11/15 13:53:47;;;;;;;4.38;2.78;;;11.60;99.90;;;;;;6157199;23;20025;-96
2022/11/15 14:10:35;;;;;;;;;;;;;;;;;;;;;
2022/11/15 14:14:36;;;;;;;7.47;3.80;;;11.50;99.90;;;;;;6313912;22;20015;-96
2022/11/15 14:24:47;;;;;;;;;;;;;;;;;;;;;
2022/11/15 14:27:35;;;;;;;4.60;2.33;;;11.40;99.90;;;;;;6311917;22;20060;-96
2022/11/15 14:37:31;;;;;;;;;;;;;;;;;;;;;
2022/11/15 14:40:01;;;;;;;6.70;2.40;;;10.90;99.90;;;;;;6302403;22;20022;-96
2022/11/15 14:42:49;;;;;;;6.78;3.08;;;11.20;99.90;;;;;;6261129;22;20033;-96
2022/11/15 14:45:37;;;;;;;7.07;2.72;;;11.10;99.90;;;;;;6311848;22;20019;-96
2022/11/15 14:48:05;;;;;;;5.35;2.75;;;11.10;99.90;;;;;;6287385;22;20019;-96
2022/11/15 14:51:18;;;;;;;8.38;3.42;;;11.10;99.90;;;;;;6288254;22;20033;-96
2022/11/15 14:57:13;;;;;;;6.32;3.30;;;10.90;99.90;;;;;;6315159;22;20015;-96
2022/11/15 14:59:54;;;;;;;;;;;;;;;;;;;;;
2022/11/15 15:02:24;;;;;;;5.38;3.10;;;10.80;99.90;;;;;;6315270;22;20018;-96
2022/11/15 15:05:03;;;;;;;5.35;2.97;;;11.70;99.90;;;;;;6285638;22;20015;-96
2022/11/15 15:07:53;;;;;;;4.75;3.00;;;10.70;99.90;;;;;;6287080;22;20019;-96
2022/11/15 15:10:20;;;;;;;5.53;3.10;;;10.70;99.90;;;;;;6286731;22;20097;-96
2022/11/15 15:12:46;;;;;;;5.30;2.92;;;10.70;99.90;;;;;;6281054;22;20437;-96
2022/11/15 15:15:34;;;;;;;6.78;3.10;;;10.60;99.90;;;;;;6260603;22;20015;-96
2022/11/15 15:18:08;;;;;;;5.20;3.08;;;10.60;99.90;;;;;;6289017;22;20023;-96
2022/11/15 15:21:06;;;;;;;5.65;3.13;;;10.50;99.90;;;;;;6263430;22;20402;-96
2022/11/15 15:23:35;;;;;;;4.33;3.00;;;10.20;99.90;;;;;;6286093;22;20097;-96
2022/11/15 15:26:02;;;;;;;3.83;3.03;;;10.40;99.90;;;;;;6260886;22;20094;-96
2022/11/15 15:29:06;;;;;;;6.53;3.33;;;10.30;99.90;;;;;;6285048;22;20050;-95
2022/11/15 15:35:17;;;;;;;5.63;2.63;;;10.30;99.90;;;;;;6337368;22;20057;-96
2022/11/15 15:37:56;;;;;;;4.65;2.72;;;10.20;99.90;;;;;;6285082;22;20019;-96
2022/11/15 15:40:43;;;;;;;6.25;2.50;;;10.20;99.90;;;;;;6260271;22;20019;-96
2022/11/15 15:43:28;;;;;;;3.72;2.85;;;10.10;99.90;;;;;;6284339;22;20090;-96
2022/11/15 15:46:31;;;;;;;5.28;3.15;;;10.10;99.90;;;;;;6258545;22;20019;-95
2022/11/15 15:50:09;;;;;;;;;;;;;;;;;;;;;
2022/11/15 15:53:08;;;;;;;;;;;;;;;;;;;;;
2022/11/15 15:56:27;;;;;;;4.90;3.17;;;9.90;99.90;;;;;;6069975;23;20033;-96
2022/11/15 15:59:28;;;;;;;;;;;;;;;;;;;;;
2022/11/15 16:02:27;;;;;;;5.60;3.47;;;9.80;99.90;;;;;;6201211;23;20463;-96
2022/11/15 16:05:13;;;;;;;9.55;3.50;;;9.70;99.90;;;;;;6148899;23;20017;-96
2022/11/15 16:07:52;;;;;;;6.47;4.65;;;9.90;99.90;;;;;;6207364;22;20014;-96
2022/11/15 16:10:38;;;;;;;10.25;4.18;;;9.80;99.90;;;;;;6240908;22;20046;-96
2022/11/15 16:13:25;;;;;;;6.75;3.50;;;10.40;99.90;;;;;;6256747;22;20071;-96
2022/11/15 16:16:16;;;;;;;6.80;3.90;;;9.90;99.90;;;;;;6255192;22;20015;-96
2022/11/15 16:18:56;;;;;;;6.07;3.53;;;9.90;99.90;;;;;;6257482;22;20200;-96
2022/11/15 16:22:08;;;;;;;;;;;;;;;;;;;;;
2022/11/15 16:24:49;;;;;;;5.88;3.75;;;9.90;99.90;;;;;;6205998;23;20071;-96
2022/11/15 16:27:47;;;;;;;;;;;;;;;;;;;;;
2022/11/15 16:30:30;;;;;;;8.00;3.97;;;10.00;99.90;;;;;;6191504;23;20016;-96
2022/11/15 16:32:56;;;;;;;6.90;4.25;;;9.90;99.90;;;;;;6165065;23;20439;-95
2022/11/15 16:39:35;;;;;;;;;;;;;;;;;;;;;
2022/11/15 16:57:41;;;;;;;5.22;3.33;;;10.20;99.90;;;;;;5976447;23;20024;-96
2022/11/15 17:01:16;;;;;;;;;;;;;;;;;;;;;
2022/11/15 17:20:09;;;;;;;;;;;;;;;;;;;;;
2022/11/15 17:23:28;;;;;;;;;;;;;;;;;;;;;
2022/11/15 17:53:19;;;;;;;5.53;2.50;;;10.30;99.90;;;;;;6155763;23;20020;-96
2022/11/15 18:00:36;;;;;;;3.58;2.25;;;9.70;99.90;;;;;;6215392;23;20520;-96
2022/11/15 18:03:48;;;;;;;5.38;2.05;;;10.10;99.90;;;;;;6105403;23;20090;-96
2022/11/15 18:10:42;;;;;;;2.95;2.00;;;10.20;99.90;;;;;;6143298;23;20013;-96
2022/11/15 18:16:53;;;;;;;6.32;2.40;;;10.30;99.90;;;;;;6261404;23;20034;-96
2022/11/15 18:42:36;;;;;;;;;;;;;;;;;;;;;
2022/11/15 19:08:23;;;;;;;3.38;2.20;;;10.10;99.90;;;;;;6280658;22;20007;-96
2022/11/15 19:22:07;;;;;;;4.03;2.20;;;10.20;99.90;;;;;;6197229;23;20088;-96
2022/11/15 19:25:04;;;;;;;;;;;;;;;;;;;;;
2022/11/15 19:27:40;;;;;;;4.53;2.00;;;10.10;99.90;;;;;;6159539;23;20080;-96
2022/11/15 19:30:29;;;;;;;3.88;1.95;;;9.50;99.90;;;;;;6160071;23;20145;-96
2022/11/15 19:41:37;;;;;;;;;;;;;;;;;;;;;
2022/11/15 19:44:58;;;;;;;;;;;;;;;;;;;;;
2022/11/15 19:55:31;;;;;;;;;;;;;;;;;;;;;
2022/11/15 19:59:12;;;;;;;;;;;;;;;;;;;;;
2022/11/15 20:10:04;;;;;;;;;;;;;;;;;;;;;
2022/11/15 20:20:48;;;;;;;;;;;;;;;;;;;;;
2022/11/15 20:31:38;;;;;;;;;;;;;;;;;;;;;
2022/11/15 20:39:30;;;;;;;;;;;;;;;;;;;;;
2022/11/15 21:33:47;;;;;;;5.03;3.08;;;10.60;99.90;;;;;;6346760;22;20033;-96
2022/11/15 21:40:03;;;;;;;4.82;3.08;;;10.60;99.90;;;;;;6328562;22;20023;-96
2022/11/15 21:50:15;;;;;;;5.13;2.90;;;10.10;99.90;;;;;;6298632;22;20035;-96
2022/11/15 21:52:42;;;;;;;4.43;3.25;;;10.40;99.90;;;;;;6241336;22;20019;-96
2022/11/15 21:55:17;;;;;;;5.80;3.20;;;10.30;99.90;;;;;;6217014;22;20020;-96
2022/11/15 21:58:02;;;;;;;7.65;3.25;;;10.30;99.90;;;;;;6231453;23;20566;-96
2022/11/15 22:03:37;;;;;;;7.40;3.50;;;10.30;99.90;;;;;;6215594;23;20028;-96
2022/11/15 22:06:54;;;;;;;5.20;3.67;;;10.10;99.90;;;;;;6210738;23;20017;-96
2022/11/15 22:13:13;;;;;;;6.43;3.75;;;10.00;99.90;;;;;;6241837;23;20016;-96
2022/11/15 22:16:44;;;;;;;6.13;4.18;;;10.10;99.90;;;;;;6265944;23;20016;-96
2022/11/15 22:20:00;;;;;;;7.03;3.90;;;10.00;99.90;;;;;;6267819;23;20015;-96
2022/11/15 22:23:01;;;;;;;6.05;3.97;;;9.60;99.90;;;;;;6206872;23;20020;-96
2022/11/15 22:29:09;;;;;;;6.20;4.40;;;10.00;99.90;;;;;;6229139;23;20024;-96
2022/11/15 22:46:21;;;;;;;7.43;4.55;;;10.20;99.90;;;;;;6361293;22;20021;-96
2022/11/15 22:49:10;;;;;;;6.28;4.38;;;10.30;99.90;;;;;;6337887;22;20007;-96
2022/11/15 22:51:58;;;;;;;9.35;4.70;;;10.10;99.90;;;;;;6280831;22;20504;-96
2022/11/15 23:02:13;;;;;;;7.45;5.15;;;10.10;99.90;;;;;;6338130;22;20061;-96
2022/11/15 23:05:38;;;;;;;8.85;5.47;;;10.20;99.90;;;;;;6275442;22;20038;-96
